This is the latest recevied weather packets stored in our database for station/object AA7F. If no packets are shown the sender has not sent any weather packets the latest 10 day(s).
| Time | Temp. | Humidity | Pressure | Rain* | Wind** | Luminosity | Snow |
|---|---|---|---|---|---|---|---|
| 1777793421 | 13.89° C | 66% | 1013 hPa | 0 mm | - | 0 W/m² | - |
| 1777793118 | 13.89° C | 67% | 1013 hPa | 0 mm | - | 0 W/m² | - |
| 1777792815 | 13.89° C | 66% | 1012.9 hPa | 0 mm | - | 0 W/m² | - |
| 1777792512 | 13.89° C | 66% | 1012.8 hPa | 0 mm | - | 0 W/m² | - |
| 1777792208 | 13.89° C | 65% | 1013.2 hPa | 0 mm | - | 0 W/m² | - |
| 1777791905 | 13.89° C | 66% | 1013 hPa | 0 mm | - | 0 W/m² | - |
| 1777791603 | 13.89° C | 67% | 1012.9 hPa | 0 mm | - | 0 W/m² | - |
| 1777791301 | 13.89° C | 67% | 1012.9 hPa | 0 mm | - | 0 W/m² | - |
| 1777790998 | 13.33° C | 68% | 1012.9 hPa | 0 mm | - | 0 W/m² | - |
| 1777790392 | 13.89° C | 63% | 1012.9 hPa | 0 mm | - | 0 W/m² | - |
| 1777790089 | 14.44° C | 63% | 1012.6 hPa | 0 mm | - | 0 W/m² | - |
| 1777789788 | 14.44° C | 63% | 1012.6 hPa | 0 mm | - | 0 W/m² | - |
| 1777789486 | 14.44° C | 63% | 1012.5 hPa | 0 mm | - | 0 W/m² | - |
| 1777789184 | 14.44° C | 63% | 1012.7 hPa | 0 mm | - | 0 W/m² | - |
| 1777788880 | 15.56° C | 59% | 1012.3 hPa | 0 mm | - | 0 W/m² | - |
| 1777788576 | 15.56° C | 56% | 1012.5 hPa | 0 mm | - | 0 W/m² | - |
| 1777788276 | 16.11° C | 56% | 1012.5 hPa | 0 mm | - | 0 W/m² | - |
| 1777787973 | 16.67° C | 54% | 1012.5 hPa | 0 mm | - | 0 W/m² | - |
| 1777787673 | 16.11° C | 55% | 1012.5 hPa | 0 mm | - | 0 W/m² | - |
| 1777787369 | 16.11° C | 57% | 1012.4 hPa | 0 mm | - | 0 W/m² | - |
| 1777787065 | 16.67° C | 55% | 1012.4 hPa | 0 mm | - | 0 W/m² | - |
| 1777786763 | 16.67° C | 56% | 1012.6 hPa | 0 mm | - | 0 W/m² | - |
| 1777786461 | 16.67° C | 54% | 1012.4 hPa | 0 mm | - | 0 W/m² | - |
| 1777786156 | 17.22° C | 54% | 1012.4 hPa | 0 mm | - | 0 W/m² | - |
| 1777785854 | 17.22° C | 52% | 1012.3 hPa | 0 mm | - | 0 W/m² | - |
* Rain latest hour (hover to see other rain measurements)
** Current wind speed in m/s (hover to see current wind gust speed)